sensor_id;sensor_type;location;lat;lon;timestamp;temperature;humidity
10433;DHT22;5263;48.680;9.004;2023-05-07T00:02:02;11.10;99.90
10433;DHT22;5263;48.680;9.004;2023-05-07T00:04:29;11.10;99.90
10433;DHT22;5263;48.680;9.004;2023-05-07T00:07:01;11.10;99.90
10433;DHT22;5263;48.680;9.004;2023-05-07T00:09:26;11.30;99.90
10433;DHT22;5263;48.680;9.004;2023-05-07T00:11:52;11.30;99.90
10433;DHT22;5263;48.680;9.004;2023-05-07T00:14:18;11.40;99.90
10433;DHT22;5263;48.680;9.004;2023-05-07T00:16:44;11.40;99.90
10433;DHT22;5263;48.680;9.004;2023-05-07T00:19:09;11.40;99.90
10433;DHT22;5263;48.680;9.004;2023-05-07T00:21:35;11.40;99.90
10433;DHT22;5263;48.680;9.004;2023-05-07T00:24:01;11.50;99.90
10433;DHT22;5263;48.680;9.004;2023-05-07T00:26:26;11.50;99.90
10433;DHT22;5263;48.680;9.004;2023-05-07T00:28:52;11.40;99.90
10433;DHT22;5263;48.680;9.004;2023-05-07T00:31:18;11.30;99.90
10433;DHT22;5263;48.680;9.004;2023-05-07T00:33:43;11.20;99.90
10433;DHT22;5263;48.680;9.004;2023-05-07T00:36:09;11.10;99.90
10433;DHT22;5263;48.680;9.004;2023-05-07T00:38:35;11.20;99.90
10433;DHT22;5263;48.680;9.004;2023-05-07T00:41:00;11.10;99.90
10433;DHT22;5263;48.680;9.004;2023-05-07T00:43:27;11.00;99.90
10433;DHT22;5263;48.680;9.004;2023-05-07T00:45:53;11.00;99.90
10433;DHT22;5263;48.680;9.004;2023-05-07T00:48:19;11.00;99.90
10433;DHT22;5263;48.680;9.004;2023-05-07T00:50:45;11.10;99.90
10433;DHT22;5263;48.680;9.004;2023-05-07T00:53:11;11.10;99.90
10433;DHT22;5263;48.680;9.004;2023-05-07T00:55:38;11.10;99.90
10433;DHT22;5263;48.680;9.004;2023-05-07T00:58:03;11.20;99.90
10433;DHT22;5263;48.680;9.004;2023-05-07T01:00:29;11.30;99.90
10433;DHT22;5263;48.680;9.004;2023-05-07T01:02:55;11.20;99.90
10433;DHT22;5263;48.680;9.004;2023-05-07T01:05:21;11.30;99.90
10433;DHT22;5263;48.680;9.004;2023-05-07T01:07:48;11.30;99.90
10433;DHT22;5263;48.680;9.004;2023-05-07T01:10:15;11.20;99.90
10433;DHT22;5263;48.680;9.004;2023-05-07T01:12:41;11.20;99.90
10433;DHT22;5263;48.680;9.004;2023-05-07T01:15:08;11.30;99.90
10433;DHT22;5263;48.680;9.004;2023-05-07T01:17:41;11.20;99.90
10433;DHT22;5263;48.680;9.004;2023-05-07T01:20:08;11.10;99.90
10433;DHT22;5263;48.680;9.004;2023-05-07T01:22:36;11.00;99.90
10433;DHT22;5263;48.680;9.004;2023-05-07T01:25:03;11.10;99.90
10433;DHT22;5263;48.680;9.004;2023-05-07T01:27:29;11.00;99.90
10433;DHT22;5263;48.680;9.004;2023-05-07T01:29:54;11.00;99.90
10433;DHT22;5263;48.680;9.004;2023-05-07T01:32:33;11.00;99.90
10433;DHT22;5263;48.680;9.004;2023-05-07T01:35:01;11.00;99.90
10433;DHT22;5263;48.680;9.004;2023-05-07T01:37:28;11.10;99.90
10433;DHT22;5263;48.680;9.004;2023-05-07T01:39:54;11.20;99.90
10433;DHT22;5263;48.680;9.004;2023-05-07T01:42:21;11.20;99.90
10433;DHT22;5263;48.680;9.004;2023-05-07T01:44:47;11.30;99.90
10433;DHT22;5263;48.680;9.004;2023-05-07T01:47:13;11.50;99.90
10433;DHT22;5263;48.680;9.004;2023-05-07T01:49:40;11.30;99.90
10433;DHT22;5263;48.680;9.004;2023-05-07T01:52:06;11.30;99.90
10433;DHT22;5263;48.680;9.004;2023-05-07T01:54:31;11.10;99.90
10433;DHT22;5263;48.680;9.004;2023-05-07T01:56:57;10.90;99.90
10433;DHT22;5263;48.680;9.004;2023-05-07T01:59:22;10.80;99.90
10433;DHT22;5263;48.680;9.004;2023-05-07T02:01:48;10.70;99.90
10433;DHT22;5263;48.680;9.004;2023-05-07T02:04:14;11.00;99.90
10433;DHT22;5263;48.680;9.004;2023-05-07T02:06:40;11.00;99.90
10433;DHT22;5263;48.680;9.004;2023-05-07T02:09:05;11.20;99.90
10433;DHT22;5263;48.680;9.004;2023-05-07T02:11:31;10.90;99.90
10433;DHT22;5263;48.680;9.004;2023-05-07T02:13:58;10.80;99.90
10433;DHT22;5263;48.680;9.004;2023-05-07T02:16:23;10.70;99.90
10433;DHT22;5263;48.680;9.004;2023-05-07T02:18:49;10.80;99.90
10433;DHT22;5263;48.680;9.004;2023-05-07T02:21:15;10.70;99.90
10433;DHT22;5263;48.680;9.004;2023-05-07T02:23:40;10.70;99.90
10433;DHT22;5263;48.680;9.004;2023-05-07T02:26:06;10.60;99.90
10433;DHT22;5263;48.680;9.004;2023-05-07T02:28:32;10.60;99.90
10433;DHT22;5263;48.680;9.004;2023-05-07T02:30:57;10.50;99.90
10433;DHT22;5263;48.680;9.004;2023-05-07T02:33:26;10.60;99.90
10433;DHT22;5263;48.680;9.004;2023-05-07T02:35:51;10.50;99.90
10433;DHT22;5263;48.680;9.004;2023-05-07T02:38:17;10.50;99.90
10433;DHT22;5263;48.680;9.004;2023-05-07T02:40:43;10.50;99.90
10433;DHT22;5263;48.680;9.004;2023-05-07T02:43:09;10.40;99.90
10433;DHT22;5263;48.680;9.004;2023-05-07T02:45:35;10.40;99.90
10433;DHT22;5263;48.680;9.004;2023-05-07T02:48:03;10.60;99.90
10433;DHT22;5263;48.680;9.004;2023-05-07T02:50:28;10.30;99.90
10433;DHT22;5263;48.680;9.004;2023-05-07T02:52:55;10.20;99.90
10433;DHT22;5263;48.680;9.004;2023-05-07T02:55:20;10.10;99.90
10433;DHT22;5263;48.680;9.004;2023-05-07T02:57:46;10.20;99.90
10433;DHT22;5263;48.680;9.004;2023-05-07T03:00:16;10.00;99.90
10433;DHT22;5263;48.680;9.004;2023-05-07T03:02:46;10.00;99.90
10433;DHT22;5263;48.680;9.004;2023-05-07T03:05:12;10.00;99.90
10433;DHT22;5263;48.680;9.004;2023-05-07T03:07:38;10.00;99.90
10433;DHT22;5263;48.680;9.004;2023-05-07T03:10:04;10.00;99.90
10433;DHT22;5263;48.680;9.004;2023-05-07T03:12:30;10.10;99.90
10433;DHT22;5263;48.680;9.004;2023-05-07T03:14:56;10.00;99.90
10433;DHT22;5263;48.680;9.004;2023-05-07T03:17:22;9.90;99.90
10433;DHT22;5263;48.680;9.004;2023-05-07T03:19:47;9.80;99.90
10433;DHT22;5263;48.680;9.004;2023-05-07T03:22:14;9.90;99.90
10433;DHT22;5263;48.680;9.004;2023-05-07T03:24:39;10.00;99.90
10433;DHT22;5263;48.680;9.004;2023-05-07T03:27:05;9.90;99.90
10433;DHT22;5263;48.680;9.004;2023-05-07T03:29:30;9.90;99.90
10433;DHT22;5263;48.680;9.004;2023-05-07T03:31:56;9.80;99.90
10433;DHT22;5263;48.680;9.004;2023-05-07T03:34:22;9.80;99.90
10433;DHT22;5263;48.680;9.004;2023-05-07T03:36:48;9.80;99.90
10433;DHT22;5263;48.680;9.004;2023-05-07T03:39:14;9.80;99.90
10433;DHT22;5263;48.680;9.004;2023-05-07T03:41:40;10.10;99.90
10433;DHT22;5263;48.680;9.004;2023-05-07T03:44:05;9.90;99.90
10433;DHT22;5263;48.680;9.004;2023-05-07T03:46:31;9.70;99.90
10433;DHT22;5263;48.680;9.004;2023-05-07T03:48:58;9.60;99.90
10433;DHT22;5263;48.680;9.004;2023-05-07T03:51:24;9.50;99.90
10433;DHT22;5263;48.680;9.004;2023-05-07T03:53:49;9.50;99.90
10433;DHT22;5263;48.680;9.004;2023-05-07T03:56:18;9.60;99.90
10433;DHT22;5263;48.680;9.004;2023-05-07T03:58:44;9.50;99.90
10433;DHT22;5263;48.680;9.004;2023-05-07T04:01:09;9.40;99.90
10433;DHT22;5263;48.680;9.004;2023-05-07T04:03:35;9.50;99.90
10433;DHT22;5263;48.680;9.004;2023-05-07T04:06:01;9.60;99.90
10433;DHT22;5263;48.680;9.004;2023-05-07T04:08:26;9.60;99.90
10433;DHT22;5263;48.680;9.004;2023-05-07T04:10:56;9.60;99.90
10433;DHT22;5263;48.680;9.004;2023-05-07T04:13:22;9.60;99.90
10433;DHT22;5263;48.680;9.004;2023-05-07T04:15:47;9.60;99.90
10433;DHT22;5263;48.680;9.004;2023-05-07T04:18:15;9.50;99.90
10433;DHT22;5263;48.680;9.004;2023-05-07T04:20:41;9.50;99.90
10433;DHT22;5263;48.680;9.004;2023-05-07T04:23:07;9.50;99.90
10433;DHT22;5263;48.680;9.004;2023-05-07T04:25:32;9.40;99.90
10433;DHT22;5263;48.680;9.004;2023-05-07T04:27:58;9.60;99.90
10433;DHT22;5263;48.680;9.004;2023-05-07T04:30:24;9.50;99.90
10433;DHT22;5263;48.680;9.004;2023-05-07T04:32:49;9.50;99.90
10433;DHT22;5263;48.680;9.004;2023-05-07T04:35:15;9.50;99.90
10433;DHT22;5263;48.680;9.004;2023-05-07T04:37:41;9.50;99.90
10433;DHT22;5263;48.680;9.004;2023-05-07T04:40:07;9.50;99.90
10433;DHT22;5263;48.680;9.004;2023-05-07T04:42:32;9.50;99.90
10433;DHT22;5263;48.680;9.004;2023-05-07T04:44:58;9.50;99.90
10433;DHT22;5263;48.680;9.004;2023-05-07T04:47:24;9.60;99.90
10433;DHT22;5263;48.680;9.004;2023-05-07T04:49:49;9.80;99.90
10433;DHT22;5263;48.680;9.004;2023-05-07T04:52:15;9.80;99.90
10433;DHT22;5263;48.680;9.004;2023-05-07T04:54:41;9.70;99.90
10433;DHT22;5263;48.680;9.004;2023-05-07T04:57:06;9.80;99.90
10433;DHT22;5263;48.680;9.004;2023-05-07T04:59:32;9.80;99.90
10433;DHT22;5263;48.680;9.004;2023-05-07T05:01:58;9.80;99.90
10433;DHT22;5263;48.680;9.004;2023-05-07T05:04:23;9.90;99.90
10433;DHT22;5263;48.680;9.004;2023-05-07T05:06:49;9.80;99.90
10433;DHT22;5263;48.680;9.004;2023-05-07T05:09:15;9.90;99.90
10433;DHT22;5263;48.680;9.004;2023-05-07T05:11:41;9.90;99.90
10433;DHT22;5263;48.680;9.004;2023-05-07T05:14:07;10.00;99.90
10433;DHT22;5263;48.680;9.004;2023-05-07T05:16:32;10.10;99.90
10433;DHT22;5263;48.680;9.004;2023-05-07T05:18:58;10.40;99.90
10433;DHT22;5263;48.680;9.004;2023-05-07T05:21:24;10.80;99.90
10433;DHT22;5263;48.680;9.004;2023-05-07T05:23:50;11.00;99.90
10433;DHT22;5263;48.680;9.004;2023-05-07T05:26:15;11.00;99.90
10433;DHT22;5263;48.680;9.004;2023-05-07T05:28:41;11.30;99.90
10433;DHT22;5263;48.680;9.004;2023-05-07T05:31:06;11.50;99.90
10433;DHT22;5263;48.680;9.004;2023-05-07T05:33:32;11.60;99.90
10433;DHT22;5263;48.680;9.004;2023-05-07T05:35:58;11.80;99.90
10433;DHT22;5263;48.680;9.004;2023-05-07T05:38:23;12.20;99.90
10433;DHT22;5263;48.680;9.004;2023-05-07T05:40:49;12.40;99.90
10433;DHT22;5263;48.680;9.004;2023-05-07T05:43:14;12.60;99.90
10433;DHT22;5263;48.680;9.004;2023-05-07T05:45:40;12.80;99.90
10433;DHT22;5263;48.680;9.004;2023-05-07T05:48:06;12.90;99.90
10433;DHT22;5263;48.680;9.004;2023-05-07T05:50:32;13.10;99.90
10433;DHT22;5263;48.680;9.004;2023-05-07T05:52:57;13.40;99.90
10433;DHT22;5263;48.680;9.004;2023-05-07T05:55:23;13.50;99.90
10433;DHT22;5263;48.680;9.004;2023-05-07T05:57:49;13.60;99.90
10433;DHT22;5263;48.680;9.004;2023-05-07T06:00:16;13.80;99.90
10433;DHT22;5263;48.680;9.004;2023-05-07T06:02:41;13.90;99.90
10433;DHT22;5263;48.680;9.004;2023-05-07T06:05:08;14.00;99.90
10433;DHT22;5263;48.680;9.004;2023-05-07T06:07:34;14.20;99.90
10433;DHT22;5263;48.680;9.004;2023-05-07T06:10:00;14.30;99.90
10433;DHT22;5263;48.680;9.004;2023-05-07T06:12:26;14.50;99.90
10433;DHT22;5263;48.680;9.004;2023-05-07T06:14:52;14.70;99.90
10433;DHT22;5263;48.680;9.004;2023-05-07T06:17:17;14.90;99.90
10433;DHT22;5263;48.680;9.004;2023-05-07T06:19:43;15.10;99.90
10433;DHT22;5263;48.680;9.004;2023-05-07T06:22:08;14.80;99.90
10433;DHT22;5263;48.680;9.004;2023-05-07T06:24:34;15.00;99.90
10433;DHT22;5263;48.680;9.004;2023-05-07T06:27:00;15.10;99.90
10433;DHT22;5263;48.680;9.004;2023-05-07T06:29:25;15.10;99.90
10433;DHT22;5263;48.680;9.004;2023-05-07T06:31:54;15.10;99.90
10433;DHT22;5263;48.680;9.004;2023-05-07T06:34:19;15.00;99.90
10433;DHT22;5263;48.680;9.004;2023-05-07T06:36:45;15.10;99.90
10433;DHT22;5263;48.680;9.004;2023-05-07T06:39:11;15.20;99.90
10433;DHT22;5263;48.680;9.004;2023-05-07T06:41:36;15.30;99.90
10433;DHT22;5263;48.680;9.004;2023-05-07T06:44:05;15.50;99.90
10433;DHT22;5263;48.680;9.004;2023-05-07T06:46:30;15.80;99.90
10433;DHT22;5263;48.680;9.004;2023-05-07T06:48:56;16.00;99.90
10433;DHT22;5263;48.680;9.004;2023-05-07T06:51:22;16.20;99.90
10433;DHT22;5263;48.680;9.004;2023-05-07T06:53:48;16.20;99.90
10433;DHT22;5263;48.680;9.004;2023-05-07T06:56:13;16.20;99.90
10433;DHT22;5263;48.680;9.004;2023-05-07T06:58:39;16.40;99.90
10433;DHT22;5263;48.680;9.004;2023-05-07T07:01:04;16.60;99.90
10433;DHT22;5263;48.680;9.004;2023-05-07T07:03:30;16.80;99.90
10433;DHT22;5263;48.680;9.004;2023-05-07T07:05:56;16.90;99.90
10433;DHT22;5263;48.680;9.004;2023-05-07T07:08:22;17.00;99.90
10433;DHT22;5263;48.680;9.004;2023-05-07T07:10:48;17.00;99.90
10433;DHT22;5263;48.680;9.004;2023-05-07T07:13:13;17.20;99.90
10433;DHT22;5263;48.680;9.004;2023-05-07T07:15:39;17.50;99.90
10433;DHT22;5263;48.680;9.004;2023-05-07T07:18:06;17.60;99.90
10433;DHT22;5263;48.680;9.004;2023-05-07T07:20:31;17.80;99.90
10433;DHT22;5263;48.680;9.004;2023-05-07T07:22:57;18.10;99.90
10433;DHT22;5263;48.680;9.004;2023-05-07T07:25:23;18.40;99.90
10433;DHT22;5263;48.680;9.004;2023-05-07T07:27:49;18.30;99.90
10433;DHT22;5263;48.680;9.004;2023-05-07T07:30:15;18.40;99.90
10433;DHT22;5263;48.680;9.004;2023-05-07T07:32:40;18.60;99.90
10433;DHT22;5263;48.680;9.004;2023-05-07T07:35:06;18.80;99.90
10433;DHT22;5263;48.680;9.004;2023-05-07T07:37:32;19.20;99.90
10433;DHT22;5263;48.680;9.004;2023-05-07T07:39:58;19.40;99.90
10433;DHT22;5263;48.680;9.004;2023-05-07T07:42:23;19.30;99.90
10433;DHT22;5263;48.680;9.004;2023-05-07T07:44:49;18.90;99.90
10433;DHT22;5263;48.680;9.004;2023-05-07T07:47:15;18.80;99.90
10433;DHT22;5263;48.680;9.004;2023-05-07T07:49:41;18.40;99.90
10433;DHT22;5263;48.680;9.004;2023-05-07T07:52:06;18.40;99.90
10433;DHT22;5263;48.680;9.004;2023-05-07T07:54:32;18.40;99.90
10433;DHT22;5263;48.680;9.004;2023-05-07T07:56:58;18.40;99.90
10433;DHT22;5263;48.680;9.004;2023-05-07T07:59:23;18.50;99.90
10433;DHT22;5263;48.680;9.004;2023-05-07T08:01:49;18.80;99.90
10433;DHT22;5263;48.680;9.004;2023-05-07T08:04:15;19.20;99.90
10433;DHT22;5263;48.680;9.004;2023-05-07T08:06:41;19.50;99.90
10433;DHT22;5263;48.680;9.004;2023-05-07T08:09:07;19.50;99.90
10433;DHT22;5263;48.680;9.004;2023-05-07T08:11:33;19.60;99.90
10433;DHT22;5263;48.680;9.004;2023-05-07T08:13:59;19.60;99.90
10433;DHT22;5263;48.680;9.004;2023-05-07T08:16:25;20.00;99.90
10433;DHT22;5263;48.680;9.004;2023-05-07T08:18:51;20.40;99.90
10433;DHT22;5263;48.680;9.004;2023-05-07T08:21:16;20.70;99.90
10433;DHT22;5263;48.680;9.004;2023-05-07T08:23:42;20.80;99.90
10433;DHT22;5263;48.680;9.004;2023-05-07T08:26:08;20.50;99.90
10433;DHT22;5263;48.680;9.004;2023-05-07T08:28:34;20.80;99.90
10433;DHT22;5263;48.680;9.004;2023-05-07T08:31:00;21.00;99.90
10433;DHT22;5263;48.680;9.004;2023-05-07T08:33:26;20.90;99.90
10433;DHT22;5263;48.680;9.004;2023-05-07T08:35:52;20.90;99.90
10433;DHT22;5263;48.680;9.004;2023-05-07T08:38:18;20.80;99.90
10433;DHT22;5263;48.680;9.004;2023-05-07T08:40:43;20.80;99.90
10433;DHT22;5263;48.680;9.004;2023-05-07T08:43:14;20.90;99.90
10433;DHT22;5263;48.680;9.004;2023-05-07T08:45:41;20.60;99.90
10433;DHT22;5263;48.680;9.004;2023-05-07T08:48:15;20.80;99.90
10433;DHT22;5263;48.680;9.004;2023-05-07T08:50:41;21.00;99.90
10433;DHT22;5263;48.680;9.004;2023-05-07T08:53:06;21.30;99.90
10433;DHT22;5263;48.680;9.004;2023-05-07T08:55:32;21.40;99.90
10433;DHT22;5263;48.680;9.004;2023-05-07T08:57:59;21.20;99.90
10433;DHT22;5263;48.680;9.004;2023-05-07T09:00:24;21.20;99.90
10433;DHT22;5263;48.680;9.004;2023-05-07T09:02:50;21.20;99.90
10433;DHT22;5263;48.680;9.004;2023-05-07T09:05:16;21.30;99.90
10433;DHT22;5263;48.680;9.004;2023-05-07T09:07:41;21.60;99.90
10433;DHT22;5263;48.680;9.004;2023-05-07T09:10:07;21.50;99.90
10433;DHT22;5263;48.680;9.004;2023-05-07T09:12:33;21.10;99.90
10433;DHT22;5263;48.680;9.004;2023-05-07T09:15:00;21.30;99.90
10433;DHT22;5263;48.680;9.004;2023-05-07T09:17:26;21.70;99.90
10433;DHT22;5263;48.680;9.004;2023-05-07T09:19:52;22.10;99.90
10433;DHT22;5263;48.680;9.004;2023-05-07T09:22:19;21.70;99.90
10433;DHT22;5263;48.680;9.004;2023-05-07T09:24:48;21.90;99.90
10433;DHT22;5263;48.680;9.004;2023-05-07T09:27:15;21.80;99.90
10433;DHT22;5263;48.680;9.004;2023-05-07T09:29:40;21.90;99.90
10433;DHT22;5263;48.680;9.004;2023-05-07T09:32:07;22.10;99.90
10433;DHT22;5263;48.680;9.004;2023-05-07T09:34:33;22.50;99.90
10433;DHT22;5263;48.680;9.004;2023-05-07T09:37:02;22.20;99.90
10433;DHT22;5263;48.680;9.004;2023-05-07T09:39:48;22.40;99.90
10433;DHT22;5263;48.680;9.004;2023-05-07T09:42:14;22.50;99.90
10433;DHT22;5263;48.680;9.004;2023-05-07T09:44:41;22.60;99.90
10433;DHT22;5263;48.680;9.004;2023-05-07T09:47:07;22.20;99.90
10433;DHT22;5263;48.680;9.004;2023-05-07T09:49:35;22.80;99.90
10433;DHT22;5263;48.680;9.004;2023-05-07T09:52:03;22.80;99.90
10433;DHT22;5263;48.680;9.004;2023-05-07T09:54:32;23.10;99.90
10433;DHT22;5263;48.680;9.004;2023-05-07T09:57:01;23.50;99.90
10433;DHT22;5263;48.680;9.004;2023-05-07T09:59:28;23.60;99.90
10433;DHT22;5263;48.680;9.004;2023-05-07T10:01:57;22.50;99.90
10433;DHT22;5263;48.680;9.004;2023-05-07T10:04:25;22.90;99.90
10433;DHT22;5263;48.680;9.004;2023-05-07T10:06:51;23.80;99.90
10433;DHT22;5263;48.680;9.004;2023-05-07T10:09:16;24.00;99.90
10433;DHT22;5263;48.680;9.004;2023-05-07T10:11:42;23.90;99.90
10433;DHT22;5263;48.680;9.004;2023-05-07T10:14:09;24.50;99.90
10433;DHT22;5263;48.680;9.004;2023-05-07T10:16:36;25.50;99.90
10433;DHT22;5263;48.680;9.004;2023-05-07T10:19:03;25.60;99.90
10433;DHT22;5263;48.680;9.004;2023-05-07T10:21:30;25.20;99.90
10433;DHT22;5263;48.680;9.004;2023-05-07T10:24:20;27.60;99.90
10433;DHT22;5263;48.680;9.004;2023-05-07T10:26:49;28.00;98.70
10433;DHT22;5263;48.680;9.004;2023-05-07T10:29:21;28.10;97.80
10433;DHT22;5263;48.680;9.004;2023-05-07T10:34:40;31.60;94.00
10433;DHT22;5263;48.680;9.004;2023-05-07T10:37:07;31.40;82.40
10433;DHT22;5263;48.680;9.004;2023-05-07T10:39:34;32.00;81.30
10433;DHT22;5263;48.680;9.004;2023-05-07T10:42:14;32.80;75.40
10433;DHT22;5263;48.680;9.004;2023-05-07T10:44:40;33.70;68.10
10433;DHT22;5263;48.680;9.004;2023-05-07T10:47:13;32.10;72.00
10433;DHT22;5263;48.680;9.004;2023-05-07T10:52:15;28.20;79.10
10433;DHT22;5263;48.680;9.004;2023-05-07T10:54:42;28.30;78.00
10433;DHT22;5263;48.680;9.004;2023-05-07T10:57:44;29.20;79.50
10433;DHT22;5263;48.680;9.004;2023-05-07T11:00:48;31.20;75.60
10433;DHT22;5263;48.680;9.004;2023-05-07T11:03:08;29.00;75.30
10433;DHT22;5263;48.680;9.004;2023-05-07T11:05:34;27.00;84.40
10433;DHT22;5263;48.680;9.004;2023-05-07T11:08:01;27.00;82.40
10433;DHT22;5263;48.680;9.004;2023-05-07T11:10:52;26.30;86.30
10433;DHT22;5263;48.680;9.004;2023-05-07T11:16:20;27.40;80.80
10433;DHT22;5263;48.680;9.004;2023-05-07T11:18:51;26.50;82.30
10433;DHT22;5263;48.680;9.004;2023-05-07T11:21:39;26.90;85.40
10433;DHT22;5263;48.680;9.004;2023-05-07T11:24:09;26.30;85.10
10433;DHT22;5263;48.680;9.004;2023-05-07T11:26:50;25.80;87.40
10433;DHT22;5263;48.680;9.004;2023-05-07T11:29:18;25.80;85.20
10433;DHT22;5263;48.680;9.004;2023-05-07T11:31:51;25.00;87.60
10433;DHT22;5263;48.680;9.004;2023-05-07T11:34:25;24.50;88.20
10433;DHT22;5263;48.680;9.004;2023-05-07T11:36:51;24.10;90.00
10433;DHT22;5263;48.680;9.004;2023-05-07T11:39:43;24.20;90.70
10433;DHT22;5263;48.680;9.004;2023-05-07T11:42:29;24.00;91.60
10433;DHT22;5263;48.680;9.004;2023-05-07T11:44:55;23.50;89.90
10433;DHT22;5263;48.680;9.004;2023-05-07T11:47:21;23.00;90.40
10433;DHT22;5263;48.680;9.004;2023-05-07T11:49:51;22.90;90.60
10433;DHT22;5263;48.680;9.004;2023-05-07T11:52:18;22.60;90.90
10433;DHT22;5263;48.680;9.004;2023-05-07T11:54:51;22.70;91.60
10433;DHT22;5263;48.680;9.004;2023-05-07T11:57:17;22.40;92.60
10433;DHT22;5263;48.680;9.004;2023-05-07T11:59:42;21.80;97.10
10433;DHT22;5263;48.680;9.004;2023-05-07T12:02:10;21.40;99.90
10433;DHT22;5263;48.680;9.004;2023-05-07T12:04:37;20.70;99.90
10433;DHT22;5263;48.680;9.004;2023-05-07T12:07:03;20.10;99.90
10433;DHT22;5263;48.680;9.004;2023-05-07T12:09:28;19.80;99.90
10433;DHT22;5263;48.680;9.004;2023-05-07T12:11:55;19.30;99.90
10433;DHT22;5263;48.680;9.004;2023-05-07T12:14:21;19.10;99.90
10433;DHT22;5263;48.680;9.004;2023-05-07T12:16:47;19.10;99.90
10433;DHT22;5263;48.680;9.004;2023-05-07T12:19:13;19.00;98.40
10433;DHT22;5263;48.680;9.004;2023-05-07T12:21:40;18.80;97.10
10433;DHT22;5263;48.680;9.004;2023-05-07T12:24:06;18.70;97.90
10433;DHT22;5263;48.680;9.004;2023-05-07T12:26:31;18.40;99.80
10433;DHT22;5263;48.680;9.004;2023-05-07T12:28:57;18.50;99.90
10433;DHT22;5263;48.680;9.004;2023-05-07T12:31:25;18.40;99.90
10433;DHT22;5263;48.680;9.004;2023-05-07T12:33:51;18.10;99.90
10433;DHT22;5263;48.680;9.004;2023-05-07T12:36:17;18.00;99.90
10433;DHT22;5263;48.680;9.004;2023-05-07T12:38:42;18.10;99.90
10433;DHT22;5263;48.680;9.004;2023-05-07T12:41:09;18.30;99.90
10433;DHT22;5263;48.680;9.004;2023-05-07T12:43:35;18.20;99.90
10433;DHT22;5263;48.680;9.004;2023-05-07T12:46:04;18.10;99.90
10433;DHT22;5263;48.680;9.004;2023-05-07T12:48:30;17.70;99.90
10433;DHT22;5263;48.680;9.004;2023-05-07T12:50:57;17.10;99.90
10433;DHT22;5263;48.680;9.004;2023-05-07T12:53:25;17.00;99.90
10433;DHT22;5263;48.680;9.004;2023-05-07T12:55:56;17.00;99.90
10433;DHT22;5263;48.680;9.004;2023-05-07T12:58:31;17.00;99.90
10433;DHT22;5263;48.680;9.004;2023-05-07T13:01:00;17.00;99.90
10433;DHT22;5263;48.680;9.004;2023-05-07T13:03:27;16.90;99.90
10433;DHT22;5263;48.680;9.004;2023-05-07T13:05:55;16.60;99.90
10433;DHT22;5263;48.680;9.004;2023-05-07T13:08:28;16.10;99.90
10433;DHT22;5263;48.680;9.004;2023-05-07T13:10:54;15.70;99.90
10433;DHT22;5263;48.680;9.004;2023-05-07T13:13:20;15.40;99.90
10433;DHT22;5263;48.680;9.004;2023-05-07T13:15:47;15.40;99.90
10433;DHT22;5263;48.680;9.004;2023-05-07T13:18:12;15.60;99.90
10433;DHT22;5263;48.680;9.004;2023-05-07T13:20:38;15.20;99.90
10433;DHT22;5263;48.680;9.004;2023-05-07T13:23:04;15.30;99.90
10433;DHT22;5263;48.680;9.004;2023-05-07T13:25:30;15.50;99.90
10433;DHT22;5263;48.680;9.004;2023-05-07T13:27:59;15.40;99.90
10433;DHT22;5263;48.680;9.004;2023-05-07T13:30:25;15.10;99.90
10433;DHT22;5263;48.680;9.004;2023-05-07T13:32:51;15.10;99.90
10433;DHT22;5263;48.680;9.004;2023-05-07T13:35:17;15.00;99.90
10433;DHT22;5263;48.680;9.004;2023-05-07T13:37:43;15.00;99.90
10433;DHT22;5263;48.680;9.004;2023-05-07T13:40:09;14.90;99.90
10433;DHT22;5263;48.680;9.004;2023-05-07T13:42:34;15.00;99.90
10433;DHT22;5263;48.680;9.004;2023-05-07T13:45:00;15.00;99.90
10433;DHT22;5263;48.680;9.004;2023-05-07T13:47:26;15.00;99.90
10433;DHT22;5263;48.680;9.004;2023-05-07T13:49:51;15.10;99.90
10433;DHT22;5263;48.680;9.004;2023-05-07T13:52:17;15.10;99.90
10433;DHT22;5263;48.680;9.004;2023-05-07T13:54:43;14.80;99.90
10433;DHT22;5263;48.680;9.004;2023-05-07T13:57:09;14.90;99.90
10433;DHT22;5263;48.680;9.004;2023-05-07T13:59:34;14.80;99.90
10433;DHT22;5263;48.680;9.004;2023-05-07T14:02:00;14.90;99.90
10433;DHT22;5263;48.680;9.004;2023-05-07T14:04:26;15.10;99.90
10433;DHT22;5263;48.680;9.004;2023-05-07T14:06:51;15.00;99.90
10433;DHT22;5263;48.680;9.004;2023-05-07T14:09:17;15.10;99.90
10433;DHT22;5263;48.680;9.004;2023-05-07T14:11:42;15.10;99.90
10433;DHT22;5263;48.680;9.004;2023-05-07T14:14:08;15.20;99.90
10433;DHT22;5263;48.680;9.004;2023-05-07T14:16:37;15.20;99.90
10433;DHT22;5263;48.680;9.004;2023-05-07T14:19:02;15.20;99.90
10433;DHT22;5263;48.680;9.004;2023-05-07T14:21:28;15.20;99.90
10433;DHT22;5263;48.680;9.004;2023-05-07T14:23:53;15.30;99.90
10433;DHT22;5263;48.680;9.004;2023-05-07T14:26:19;15.00;99.90
10433;DHT22;5263;48.680;9.004;2023-05-07T14:28:46;14.70;99.90
10433;DHT22;5263;48.680;9.004;2023-05-07T14:31:12;14.90;99.90
10433;DHT22;5263;48.680;9.004;2023-05-07T14:33:37;15.10;99.90
10433;DHT22;5263;48.680;9.004;2023-05-07T14:36:03;15.20;99.90
10433;DHT22;5263;48.680;9.004;2023-05-07T14:38:29;14.90;99.90
10433;DHT22;5263;48.680;9.004;2023-05-07T14:40:55;14.80;99.90
10433;DHT22;5263;48.680;9.004;2023-05-07T14:43:22;15.20;99.90
10433;DHT22;5263;48.680;9.004;2023-05-07T14:45:47;14.90;99.90
10433;DHT22;5263;48.680;9.004;2023-05-07T14:48:13;14.80;99.90
10433;DHT22;5263;48.680;9.004;2023-05-07T14:50:41;14.90;99.90
10433;DHT22;5263;48.680;9.004;2023-05-07T14:53:07;15.00;99.90
10433;DHT22;5263;48.680;9.004;2023-05-07T14:55:34;15.20;99.90
10433;DHT22;5263;48.680;9.004;2023-05-07T14:58:00;15.30;99.90
10433;DHT22;5263;48.680;9.004;2023-05-07T15:00:25;15.30;99.90
10433;DHT22;5263;48.680;9.004;2023-05-07T15:02:51;15.30;99.90
10433;DHT22;5263;48.680;9.004;2023-05-07T15:05:17;15.70;99.90
10433;DHT22;5263;48.680;9.004;2023-05-07T15:07:44;15.80;99.90
10433;DHT22;5263;48.680;9.004;2023-05-07T15:10:10;15.70;99.90
10433;DHT22;5263;48.680;9.004;2023-05-07T15:12:36;15.70;99.90
10433;DHT22;5263;48.680;9.004;2023-05-07T15:15:02;15.40;99.90
10433;DHT22;5263;48.680;9.004;2023-05-07T15:17:28;15.40;99.90
10433;DHT22;5263;48.680;9.004;2023-05-07T15:19:54;15.50;99.90
10433;DHT22;5263;48.680;9.004;2023-05-07T15:22:20;15.60;99.90
10433;DHT22;5263;48.680;9.004;2023-05-07T15:24:46;15.60;99.90
10433;DHT22;5263;48.680;9.004;2023-05-07T15:27:12;15.60;99.90
10433;DHT22;5263;48.680;9.004;2023-05-07T15:29:38;15.80;99.90
10433;DHT22;5263;48.680;9.004;2023-05-07T15:32:03;15.70;99.90
10433;DHT22;5263;48.680;9.004;2023-05-07T15:34:29;16.00;99.90
10433;DHT22;5263;48.680;9.004;2023-05-07T15:36:56;15.90;99.90
10433;DHT22;5263;48.680;9.004;2023-05-07T15:39:22;16.20;99.90
10433;DHT22;5263;48.680;9.004;2023-05-07T15:41:48;16.40;99.90
10433;DHT22;5263;48.680;9.004;2023-05-07T15:44:13;16.20;99.90
10433;DHT22;5263;48.680;9.004;2023-05-07T15:46:39;16.30;99.90
10433;DHT22;5263;48.680;9.004;2023-05-07T15:49:04;16.60;99.90
10433;DHT22;5263;48.680;9.004;2023-05-07T15:51:30;16.90;99.90
10433;DHT22;5263;48.680;9.004;2023-05-07T15:53:56;16.80;99.90